sensor_id;sensor_type;location;lat;lon;timestamp;temperature;humidity
28530;DHT22;15737;49.760;6.632;2024-02-26T00:33:25;6.20;99.90
28530;DHT22;15737;49.760;6.632;2024-02-26T00:38:25;6.40;99.90
28530;DHT22;15737;49.760;6.632;2024-02-26T01:24:50;6.20;99.90
28530;DHT22;15737;49.760;6.632;2024-02-26T01:27:39;6.20;99.90
28530;DHT22;15737;49.760;6.632;2024-02-26T01:31:04;6.20;99.90
28530;DHT22;15737;49.760;6.632;2024-02-26T01:47:11;6.00;99.90
28530;DHT22;15737;49.760;6.632;2024-02-26T03:01:34;5.60;99.90
28530;DHT22;15737;49.760;6.632;2024-02-26T06:41:31;6.50;99.90
28530;DHT22;15737;49.760;6.632;2024-02-26T06:43:56;6.50;99.90
28530;DHT22;15737;49.760;6.632;2024-02-26T08:58:38;8.00;99.90
28530;DHT22;15737;49.760;6.632;2024-02-26T09:11:19;8.80;99.90
28530;DHT22;15737;49.760;6.632;2024-02-26T09:13:45;9.00;99.90
28530;DHT22;15737;49.760;6.632;2024-02-26T09:21:35;8.60;99.90
28530;DHT22;15737;49.760;6.632;2024-02-26T09:24:21;8.40;99.90
28530;DHT22;15737;49.760;6.632;2024-02-26T09:27:25;8.50;99.90
28530;DHT22;15737;49.760;6.632;2024-02-26T09:40:10;9.30;99.90
28530;DHT22;15737;49.760;6.632;2024-02-26T09:42:38;9.50;99.90
28530;DHT22;15737;49.760;6.632;2024-02-26T09:47:57;9.50;99.90
28530;DHT22;15737;49.760;6.632;2024-02-26T09:51:19;9.40;99.90
28530;DHT22;15737;49.760;6.632;2024-02-26T09:54:26;9.40;99.90
28530;DHT22;15737;49.760;6.632;2024-02-26T09:56:55;9.50;99.90
28530;DHT22;15737;49.760;6.632;2024-02-26T09:59:23;9.60;99.90
28530;DHT22;15737;49.760;6.632;2024-02-26T10:02:15;9.80;99.90
28530;DHT22;15737;49.760;6.632;2024-02-26T10:05:12;9.80;99.90
28530;DHT22;15737;49.760;6.632;2024-02-26T10:21:16;10.30;99.90
28530;DHT22;15737;49.760;6.632;2024-02-26T10:42:02;13.10;99.90
28530;DHT22;15737;49.760;6.632;2024-02-26T10:44:54;12.90;99.90
28530;DHT22;15737;49.760;6.632;2024-02-26T10:47:43;12.70;99.90
28530;DHT22;15737;49.760;6.632;2024-02-26T10:53:47;12.80;99.90
28530;DHT22;15737;49.760;6.632;2024-02-26T10:56:36;13.20;99.90
28530;DHT22;15737;49.760;6.632;2024-02-26T10:59:22;13.60;99.90
28530;DHT22;15737;49.760;6.632;2024-02-26T11:04:20;13.40;99.90
28530;DHT22;15737;49.760;6.632;2024-02-26T11:24:16;16.90;99.90
28530;DHT22;15737;49.760;6.632;2024-02-26T11:26:51;17.40;99.90
28530;DHT22;15737;49.760;6.632;2024-02-26T11:29:25;18.50;99.90
28530;DHT22;15737;49.760;6.632;2024-02-26T11:31:53;18.60;99.90
28530;DHT22;15737;49.760;6.632;2024-02-26T11:35:09;18.50;99.90
28530;DHT22;15737;49.760;6.632;2024-02-26T11:37:39;17.90;99.90
28530;DHT22;15737;49.760;6.632;2024-02-26T11:40:23;17.50;99.90
28530;DHT22;15737;49.760;6.632;2024-02-26T11:42:49;17.00;99.90
28530;DHT22;15737;49.760;6.632;2024-02-26T11:45:54;16.50;99.90
28530;DHT22;15737;49.760;6.632;2024-02-26T11:48:24;16.30;99.90
28530;DHT22;15737;49.760;6.632;2024-02-26T11:50:55;16.10;99.90
28530;DHT22;15737;49.760;6.632;2024-02-26T11:53:59;16.00;99.90
28530;DHT22;15737;49.760;6.632;2024-02-26T11:56:25;15.70;99.90
28530;DHT22;15737;49.760;6.632;2024-02-26T11:59:36;15.00;99.90
28530;DHT22;15737;49.760;6.632;2024-02-26T12:07:40;14.80;99.90
28530;DHT22;15737;49.760;6.632;2024-02-26T12:13:30;15.10;99.90
28530;DHT22;15737;49.760;6.632;2024-02-26T12:16:36;15.30;99.90
28530;DHT22;15737;49.760;6.632;2024-02-26T12:21:46;16.20;99.90
28530;DHT22;15737;49.760;6.632;2024-02-26T12:30:08;16.50;99.90
28530;DHT22;15737;49.760;6.632;2024-02-26T12:50:50;15.80;99.90
28530;DHT22;15737;49.760;6.632;2024-02-26T12:53:17;15.40;99.90
28530;DHT22;15737;49.760;6.632;2024-02-26T12:55:45;14.90;99.90
28530;DHT22;15737;49.760;6.632;2024-02-26T12:58:12;14.60;99.90
28530;DHT22;15737;49.760;6.632;2024-02-26T13:00:38;14.20;99.90
28530;DHT22;15737;49.760;6.632;2024-02-26T13:03:19;14.00;99.90
28530;DHT22;15737;49.760;6.632;2024-02-26T13:05:46;13.80;99.90
28530;DHT22;15737;49.760;6.632;2024-02-26T13:08:21;13.70;99.90
28530;DHT22;15737;49.760;6.632;2024-02-26T13:10:47;13.70;99.90
28530;DHT22;15737;49.760;6.632;2024-02-26T13:13:15;13.80;99.90
28530;DHT22;15737;49.760;6.632;2024-02-26T13:15:43;14.00;99.90
28530;DHT22;15737;49.760;6.632;2024-02-26T13:18:27;14.30;99.90
28530;DHT22;15737;49.760;6.632;2024-02-26T13:20:53;14.50;99.90
28530;DHT22;15737;49.760;6.632;2024-02-26T13:23:18;14.60;99.90
28530;DHT22;15737;49.760;6.632;2024-02-26T13:25:45;14.50;99.90
28530;DHT22;15737;49.760;6.632;2024-02-26T13:28:15;14.20;99.90
28530;DHT22;15737;49.760;6.632;2024-02-26T13:30:55;13.80;99.90
28530;DHT22;15737;49.760;6.632;2024-02-26T13:33:26;13.50;99.90
28530;DHT22;15737;49.760;6.632;2024-02-26T13:35:52;13.30;99.90
28530;DHT22;15737;49.760;6.632;2024-02-26T13:38:18;13.10;99.90
28530;DHT22;15737;49.760;6.632;2024-02-26T13:40:43;12.90;99.90
28530;DHT22;15737;49.760;6.632;2024-02-26T13:43:09;12.70;99.90
28530;DHT22;15737;49.760;6.632;2024-02-26T13:45:35;12.60;99.90
28530;DHT22;15737;49.760;6.632;2024-02-26T13:48:09;12.50;99.90
28530;DHT22;15737;49.760;6.632;2024-02-26T13:50:40;12.30;99.90
28530;DHT22;15737;49.760;6.632;2024-02-26T13:53:05;12.20;99.90
28530;DHT22;15737;49.760;6.632;2024-02-26T13:55:31;12.10;99.90
28530;DHT22;15737;49.760;6.632;2024-02-26T13:57:58;12.10;99.90
28530;DHT22;15737;49.760;6.632;2024-02-26T14:00:24;12.00;99.90
28530;DHT22;15737;49.760;6.632;2024-02-26T14:08:03;11.70;99.90
28530;DHT22;15737;49.760;6.632;2024-02-26T14:10:29;11.60;99.90
28530;DHT22;15737;49.760;6.632;2024-02-26T14:12:56;11.50;99.90
28530;DHT22;15737;49.760;6.632;2024-02-26T14:15:22;11.50;99.90
28530;DHT22;15737;49.760;6.632;2024-02-26T14:20:30;11.50;99.90
28530;DHT22;15737;49.760;6.632;2024-02-26T14:22:55;11.40;99.90
28530;DHT22;15737;49.760;6.632;2024-02-26T14:25:21;11.30;99.90
28530;DHT22;15737;49.760;6.632;2024-02-26T14:27:47;11.20;99.90
28530;DHT22;15737;49.760;6.632;2024-02-26T14:30:13;11.20;99.90
28530;DHT22;15737;49.760;6.632;2024-02-26T14:32:40;11.20;99.90
28530;DHT22;15737;49.760;6.632;2024-02-26T14:35:06;11.20;99.90
28530;DHT22;15737;49.760;6.632;2024-02-26T14:37:32;11.20;99.90
28530;DHT22;15737;49.760;6.632;2024-02-26T14:39:58;11.30;99.90
28530;DHT22;15737;49.760;6.632;2024-02-26T14:42:23;11.40;99.90
28530;DHT22;15737;49.760;6.632;2024-02-26T14:47:24;11.50;99.90
28530;DHT22;15737;49.760;6.632;2024-02-26T14:49:49;11.60;99.90
28530;DHT22;15737;49.760;6.632;2024-02-26T14:52:17;11.60;99.90
28530;DHT22;15737;49.760;6.632;2024-02-26T14:54:42;11.60;99.90
28530;DHT22;15737;49.760;6.632;2024-02-26T14:57:08;11.60;99.90
28530;DHT22;15737;49.760;6.632;2024-02-26T14:59:34;11.60;99.90
28530;DHT22;15737;49.760;6.632;2024-02-26T15:02:02;11.50;99.90
28530;DHT22;15737;49.760;6.632;2024-02-26T15:04:27;11.60;99.90
28530;DHT22;15737;49.760;6.632;2024-02-26T15:06:53;11.40;99.90
28530;DHT22;15737;49.760;6.632;2024-02-26T15:09:18;11.40;99.90
28530;DHT22;15737;49.760;6.632;2024-02-26T15:16:52;11.30;99.90
28530;DHT22;15737;49.760;6.632;2024-02-26T15:19:18;11.20;99.90
28530;DHT22;15737;49.760;6.632;2024-02-26T15:21:45;11.20;99.90
28530;DHT22;15737;49.760;6.632;2024-02-26T15:24:11;11.20;99.90
28530;DHT22;15737;49.760;6.632;2024-02-26T15:31:47;11.20;99.90
28530;DHT22;15737;49.760;6.632;2024-02-26T15:34:12;11.10;99.90
28530;DHT22;15737;49.760;6.632;2024-02-26T15:36:38;11.10;99.90
28530;DHT22;15737;49.760;6.632;2024-02-26T15:39:04;11.00;99.90
28530;DHT22;15737;49.760;6.632;2024-02-26T15:46:45;10.80;99.90
28530;DHT22;15737;49.760;6.632;2024-02-26T15:49:10;10.70;99.90
28530;DHT22;15737;49.760;6.632;2024-02-26T15:51:36;10.60;99.90
28530;DHT22;15737;49.760;6.632;2024-02-26T15:54:02;10.50;99.90
28530;DHT22;15737;49.760;6.632;2024-02-26T15:56:40;10.40;99.90
28530;DHT22;15737;49.760;6.632;2024-02-26T15:59:06;10.40;99.90
28530;DHT22;15737;49.760;6.632;2024-02-26T16:01:31;10.30;99.90
28530;DHT22;15737;49.760;6.632;2024-02-26T16:03:57;10.30;99.90
28530;DHT22;15737;49.760;6.632;2024-02-26T16:06:29;10.20;99.90
28530;DHT22;15737;49.760;6.632;2024-02-26T16:08:56;10.20;99.90
28530;DHT22;15737;49.760;6.632;2024-02-26T16:11:37;10.10;99.90
28530;DHT22;15737;49.760;6.632;2024-02-26T16:19:33;9.90;99.90
28530;DHT22;15737;49.760;6.632;2024-02-26T16:22:01;9.90;99.90
28530;DHT22;15737;49.760;6.632;2024-02-26T16:24:26;9.90;99.90
28530;DHT22;15737;49.760;6.632;2024-02-26T16:26:52;9.80;99.90
28530;DHT22;15737;49.760;6.632;2024-02-26T16:29:18;9.80;99.90
28530;DHT22;15737;49.760;6.632;2024-02-26T16:32:01;9.70;99.90
28530;DHT22;15737;49.760;6.632;2024-02-26T16:34:28;9.70;99.90
28530;DHT22;15737;49.760;6.632;2024-02-26T16:36:53;9.70;99.90
28530;DHT22;15737;49.760;6.632;2024-02-26T16:39:19;9.70;99.90
28530;DHT22;15737;49.760;6.632;2024-02-26T16:41:44;9.60;99.90
28530;DHT22;15737;49.760;6.632;2024-02-26T16:44:10;9.60;99.90
28530;DHT22;15737;49.760;6.632;2024-02-26T16:46:35;9.60;99.90
28530;DHT22;15737;49.760;6.632;2024-02-26T16:49:01;9.60;99.90
28530;DHT22;15737;49.760;6.632;2024-02-26T16:51:26;9.60;99.90
28530;DHT22;15737;49.760;6.632;2024-02-26T16:53:52;9.50;99.90
28530;DHT22;15737;49.760;6.632;2024-02-26T16:58:55;9.30;99.90
28530;DHT22;15737;49.760;6.632;2024-02-26T17:01:21;9.20;99.90
28530;DHT22;15737;49.760;6.632;2024-02-26T17:03:46;9.20;99.90
28530;DHT22;15737;49.760;6.632;2024-02-26T17:06:12;9.10;99.90
28530;DHT22;15737;49.760;6.632;2024-02-26T17:08:38;9.10;99.90
28530;DHT22;15737;49.760;6.632;2024-02-26T17:11:03;9.10;99.90
28530;DHT22;15737;49.760;6.632;2024-02-26T17:13:29;9.10;99.90
28530;DHT22;15737;49.760;6.632;2024-02-26T17:15:55;9.10;99.90
28530;DHT22;15737;49.760;6.632;2024-02-26T17:18:21;9.00;99.90
28530;DHT22;15737;49.760;6.632;2024-02-26T17:20:47;9.00;99.90
28530;DHT22;15737;49.760;6.632;2024-02-26T17:25:49;8.90;99.90
28530;DHT22;15737;49.760;6.632;2024-02-26T17:28:15;8.90;99.90
28530;DHT22;15737;49.760;6.632;2024-02-26T17:30:40;8.90;99.90
28530;DHT22;15737;49.760;6.632;2024-02-26T17:33:06;9.00;99.90
28530;DHT22;15737;49.760;6.632;2024-02-26T17:35:31;9.00;99.90
28530;DHT22;15737;49.760;6.632;2024-02-26T17:37:57;9.00;99.90
28530;DHT22;15737;49.760;6.632;2024-02-26T17:40:22;9.00;99.90
28530;DHT22;15737;49.760;6.632;2024-02-26T17:42:48;9.00;99.90
28530;DHT22;15737;49.760;6.632;2024-02-26T17:45:13;9.00;99.90
28530;DHT22;15737;49.760;6.632;2024-02-26T17:47:42;9.00;99.90
28530;DHT22;15737;49.760;6.632;2024-02-26T17:52:45;8.90;99.90
28530;DHT22;15737;49.760;6.632;2024-02-26T17:55:10;9.00;99.90
28530;DHT22;15737;49.760;6.632;2024-02-26T17:57:36;9.00;99.90
28530;DHT22;15737;49.760;6.632;2024-02-26T18:00:02;8.90;99.90
28530;DHT22;15737;49.760;6.632;2024-02-26T18:02:28;8.90;99.90
28530;DHT22;15737;49.760;6.632;2024-02-26T18:04:54;8.90;99.90
28530;DHT22;15737;49.760;6.632;2024-02-26T18:07:20;8.80;99.90
28530;DHT22;15737;49.760;6.632;2024-02-26T18:09:46;8.80;99.90
28530;DHT22;15737;49.760;6.632;2024-02-26T18:12:11;8.80;99.90
28530;DHT22;15737;49.760;6.632;2024-02-26T18:14:37;8.80;99.90
28530;DHT22;15737;49.760;6.632;2024-02-26T18:22:09;8.70;99.90
28530;DHT22;15737;49.760;6.632;2024-02-26T18:24:35;8.60;99.90
28530;DHT22;15737;49.760;6.632;2024-02-26T18:27:01;8.60;99.90
28530;DHT22;15737;49.760;6.632;2024-02-26T18:29:26;8.60;99.90
28530;DHT22;15737;49.760;6.632;2024-02-26T18:31:52;8.50;99.90
28530;DHT22;15737;49.760;6.632;2024-02-26T18:34:36;8.50;99.90
28530;DHT22;15737;49.760;6.632;2024-02-26T18:37:04;8.50;99.90
28530;DHT22;15737;49.760;6.632;2024-02-26T18:39:30;8.50;99.90
28530;DHT22;15737;49.760;6.632;2024-02-26T18:41:55;8.50;99.90
28530;DHT22;15737;49.760;6.632;2024-02-26T18:44:23;8.50;99.90
28530;DHT22;15737;49.760;6.632;2024-02-26T18:46:48;8.50;99.90
28530;DHT22;15737;49.760;6.632;2024-02-26T18:49:14;8.50;99.90
28530;DHT22;15737;49.760;6.632;2024-02-26T18:51:44;8.50;99.90
28530;DHT22;15737;49.760;6.632;2024-02-26T18:54:10;8.50;99.90
28530;DHT22;15737;49.760;6.632;2024-02-26T18:56:36;8.50;99.90
28530;DHT22;15737;49.760;6.632;2024-02-26T19:01:32;8.50;99.90
28530;DHT22;15737;49.760;6.632;2024-02-26T19:04:00;8.50;99.90
28530;DHT22;15737;49.760;6.632;2024-02-26T19:06:25;8.50;99.90
28530;DHT22;15737;49.760;6.632;2024-02-26T19:08:51;8.50;99.90
28530;DHT22;15737;49.760;6.632;2024-02-26T19:11:17;8.50;99.90
28530;DHT22;15737;49.760;6.632;2024-02-26T19:18:56;8.50;99.90
28530;DHT22;15737;49.760;6.632;2024-02-26T19:21:22;8.40;99.90
28530;DHT22;15737;49.760;6.632;2024-02-26T19:23:47;8.40;99.90
28530;DHT22;15737;49.760;6.632;2024-02-26T19:26:13;8.30;99.90
28530;DHT22;15737;49.760;6.632;2024-02-26T19:28:38;8.30;99.90
28530;DHT22;15737;49.760;6.632;2024-02-26T19:36:34;8.20;99.90
28530;DHT22;15737;49.760;6.632;2024-02-26T19:39:00;8.20;99.90
28530;DHT22;15737;49.760;6.632;2024-02-26T19:41:26;8.20;99.90
28530;DHT22;15737;49.760;6.632;2024-02-26T19:46:24;8.20;99.90
28530;DHT22;15737;49.760;6.632;2024-02-26T19:48:49;8.10;99.90
28530;DHT22;15737;49.760;6.632;2024-02-26T19:51:16;8.10;99.90
28530;DHT22;15737;49.760;6.632;2024-02-26T19:53:42;8.10;99.90
28530;DHT22;15737;49.760;6.632;2024-02-26T20:01:18;8.20;99.90
28530;DHT22;15737;49.760;6.632;2024-02-26T20:03:43;8.20;99.90
28530;DHT22;15737;49.760;6.632;2024-02-26T20:06:10;8.20;99.90
28530;DHT22;15737;49.760;6.632;2024-02-26T20:08:36;8.20;99.90
28530;DHT22;15737;49.760;6.632;2024-02-26T20:11:03;8.20;99.90
28530;DHT22;15737;49.760;6.632;2024-02-26T20:13:29;8.20;99.90
28530;DHT22;15737;49.760;6.632;2024-02-26T20:15:55;8.10;99.90
28530;DHT22;15737;49.760;6.632;2024-02-26T20:18:21;8.20;99.90
28530;DHT22;15737;49.760;6.632;2024-02-26T20:20:46;8.20;99.90
28530;DHT22;15737;49.760;6.632;2024-02-26T20:28:16;8.20;99.90
28530;DHT22;15737;49.760;6.632;2024-02-26T20:30:43;8.10;99.90
28530;DHT22;15737;49.760;6.632;2024-02-26T20:33:13;8.10;99.90
28530;DHT22;15737;49.760;6.632;2024-02-26T20:35:39;8.00;99.90
28530;DHT22;15737;49.760;6.632;2024-02-26T20:43:15;7.90;99.90
28530;DHT22;15737;49.760;6.632;2024-02-26T20:45:42;7.80;99.90
28530;DHT22;15737;49.760;6.632;2024-02-26T20:48:17;7.80;99.90
28530;DHT22;15737;49.760;6.632;2024-02-26T20:50:44;7.70;99.90
28530;DHT22;15737;49.760;6.632;2024-02-26T20:53:10;7.70;99.90
28530;DHT22;15737;49.760;6.632;2024-02-26T20:55:37;7.70;99.90
28530;DHT22;15737;49.760;6.632;2024-02-26T20:58:08;7.70;99.90
28530;DHT22;15737;49.760;6.632;2024-02-26T21:00:34;7.70;99.90
28530;DHT22;15737;49.760;6.632;2024-02-26T21:03:00;7.70;99.90
28530;DHT22;15737;49.760;6.632;2024-02-26T21:05:28;7.70;99.90
28530;DHT22;15737;49.760;6.632;2024-02-26T21:07:54;7.80;99.90
28530;DHT22;15737;49.760;6.632;2024-02-26T21:10:25;7.80;99.90
28530;DHT22;15737;49.760;6.632;2024-02-26T21:12:55;7.80;99.90
28530;DHT22;15737;49.760;6.632;2024-02-26T21:15:21;7.80;99.90
28530;DHT22;15737;49.760;6.632;2024-02-26T21:17:47;7.70;99.90
28530;DHT22;15737;49.760;6.632;2024-02-26T21:20:13;7.70;99.90
28530;DHT22;15737;49.760;6.632;2024-02-26T21:22:40;7.70;99.90
28530;DHT22;15737;49.760;6.632;2024-02-26T21:25:09;7.70;99.90
28530;DHT22;15737;49.760;6.632;2024-02-26T21:27:35;7.70;99.90
28530;DHT22;15737;49.760;6.632;2024-02-26T21:30:02;7.70;99.90
28530;DHT22;15737;49.760;6.632;2024-02-26T21:32:28;7.70;99.90
28530;DHT22;15737;49.760;6.632;2024-02-26T21:34:55;7.70;99.90
28530;DHT22;15737;49.760;6.632;2024-02-26T21:39:56;7.70;99.90
28530;DHT22;15737;49.760;6.632;2024-02-26T21:42:22;7.70;99.90
28530;DHT22;15737;49.760;6.632;2024-02-26T21:44:48;7.60;99.90
28530;DHT22;15737;49.760;6.632;2024-02-26T21:47:14;7.60;99.90
28530;DHT22;15737;49.760;6.632;2024-02-26T21:54:49;7.50;99.90
28530;DHT22;15737;49.760;6.632;2024-02-26T21:57:16;7.40;99.90
28530;DHT22;15737;49.760;6.632;2024-02-26T21:59:43;7.40;99.90
28530;DHT22;15737;49.760;6.632;2024-02-26T22:02:09;7.40;99.90
28530;DHT22;15737;49.760;6.632;2024-02-26T22:04:36;7.40;99.90
28530;DHT22;15737;49.760;6.632;2024-02-26T22:07:02;7.40;99.90
28530;DHT22;15737;49.760;6.632;2024-02-26T22:09:27;7.40;99.90
28530;DHT22;15737;49.760;6.632;2024-02-26T22:11:53;7.30;99.90
28530;DHT22;15737;49.760;6.632;2024-02-26T22:14:19;7.30;99.90
28530;DHT22;15737;49.760;6.632;2024-02-26T22:16:45;7.30;99.90
28530;DHT22;15737;49.760;6.632;2024-02-26T22:21:47;7.30;99.90
28530;DHT22;15737;49.760;6.632;2024-02-26T22:24:12;7.30;99.90
28530;DHT22;15737;49.760;6.632;2024-02-26T22:26:38;7.30;99.90
28530;DHT22;15737;49.760;6.632;2024-02-26T22:29:05;7.30;99.90
28530;DHT22;15737;49.760;6.632;2024-02-26T22:39:14;7.30;99.90
28530;DHT22;15737;49.760;6.632;2024-02-26T22:41:43;7.30;99.90
28530;DHT22;15737;49.760;6.632;2024-02-26T22:44:11;7.20;99.90
28530;DHT22;15737;49.760;6.632;2024-02-26T22:46:36;7.20;99.90
28530;DHT22;15737;49.760;6.632;2024-02-26T22:56:48;7.10;99.90
28530;DHT22;15737;49.760;6.632;2024-02-26T22:59:14;7.10;99.90
28530;DHT22;15737;49.760;6.632;2024-02-26T23:01:40;7.20;99.90
28530;DHT22;15737;49.760;6.632;2024-02-26T23:09:13;7.10;99.90
28530;DHT22;15737;49.760;6.632;2024-02-26T23:11:39;7.00;99.90
28530;DHT22;15737;49.760;6.632;2024-02-26T23:14:05;7.10;99.90
28530;DHT22;15737;49.760;6.632;2024-02-26T23:16:31;7.10;99.90
28530;DHT22;15737;49.760;6.632;2024-02-26T23:24:03;7.10;99.90
28530;DHT22;15737;49.760;6.632;2024-02-26T23:26:29;7.10;99.90
28530;DHT22;15737;49.760;6.632;2024-02-26T23:28:54;7.10;99.90
28530;DHT22;15737;49.760;6.632;2024-02-26T23:31:20;7.10;99.90
28530;DHT22;15737;49.760;6.632;2024-02-26T23:33:46;7.10;99.90
28530;DHT22;15737;49.760;6.632;2024-02-26T23:36:11;7.10;99.90
28530;DHT22;15737;49.760;6.632;2024-02-26T23:38:38;7.00;99.90
28530;DHT22;15737;49.760;6.632;2024-02-26T23:41:04;7.00;99.90
28530;DHT22;15737;49.760;6.632;2024-02-26T23:43:29;6.90;99.90
28530;DHT22;15737;49.760;6.632;2024-02-26T23:53:34;6.80;99.90
28530;DHT22;15737;49.760;6.632;2024-02-26T23:56:00;6.80;99.90
28530;DHT22;15737;49.760;6.632;2024-02-26T23:58:27;6.80;99.90
